createdAt,value
2019-03-02T00:00:50.874Z,100.0
2019-03-02T00:02:50.093Z,100.0
2019-03-02T00:04:50.689Z,100.0
2019-03-02T00:06:49.945Z,100.0
2019-03-02T00:08:50.199Z,100.0
2019-03-02T00:10:50.380Z,100.0
2019-03-02T00:12:50.586Z,100.0
2019-03-02T00:14:55.422Z,100.0
2019-03-02T00:16:50.772Z,100.0
2019-03-02T00:18:50.147Z,100.0
2019-03-02T00:20:56.805Z,100.0
2019-03-02T00:22:50.072Z,100.0
2019-03-02T00:24:50.218Z,100.0
2019-03-02T00:26:50.543Z,100.0
2019-03-02T00:28:50.675Z,100.0
2019-03-02T00:30:50.941Z,100.0
2019-03-02T00:32:50.123Z,100.0
2019-03-02T00:34:50.755Z,100.0
2019-03-02T00:36:58.877Z,100.0
2019-03-02T00:38:50.123Z,100.0
2019-03-02T00:40:50.349Z,100.0
2019-03-02T00:42:53.337Z,100.0
2019-03-02T00:44:50.551Z,100.0
2019-03-02T00:46:50.884Z,100.0
2019-03-02T00:48:50.113Z,100.0
2019-03-02T00:50:50.307Z,100.0
2019-03-02T00:52:50.498Z,100.0
2019-03-02T00:54:59.032Z,100.0
2019-03-02T00:56:50.415Z,100.0
2019-03-02T00:58:50.650Z,100.0
2019-03-02T01:00:55.494Z,100.0
2019-03-02T01:02:50.689Z,100.0
2019-03-02T01:04:50.374Z,100.0
2019-03-02T01:06:50.783Z,100.0
2019-03-02T01:08:49.978Z,100.0
2019-03-02T01:10:50.211Z,100.0
2019-03-02T01:12:50.503Z,100.0
2019-03-02T01:14:50.762Z,100.0
2019-03-02T01:16:56.271Z,100.0
2019-03-02T01:18:50.485Z,100.0
2019-03-02T01:20:50.752Z,100.0
2019-03-02T01:22:53.278Z,100.0
2019-03-02T01:24:50.468Z,100.0
2019-03-02T01:26:50.763Z,100.0
2019-03-02T01:28:49.947Z,100.0
2019-03-02T01:30:50.183Z,100.0
2019-03-02T01:32:54.087Z,100.0
2019-03-02T01:34:50.665Z,100.0
2019-03-02T01:36:50.944Z,100.0
2019-03-02T01:38:55.248Z,100.0
2019-03-02T01:40:50.514Z,100.0
2019-03-02T01:42:50.867Z,100.0
2019-03-02T01:44:53.005Z,100.0
2019-03-02T01:46:50.344Z,100.0
2019-03-02T01:48:50.636Z,100.0
2019-03-02T01:50:50.917Z,100.0
2019-03-02T01:52:50.080Z,100.0
2019-03-02T01:54:57.048Z,100.0
2019-03-02T01:56:50.372Z,100.0
2019-03-02T01:58:50.663Z,100.0
2019-03-02T02:00:50.568Z,100.0
2019-03-02T02:02:50.714Z,100.0
2019-03-02T02:04:50.395Z,100.0
2019-03-02T02:06:50.717Z,100.0
2019-03-02T02:08:50.005Z,100.0
2019-03-02T02:10:50.188Z,100.0
2019-03-02T02:12:50.516Z,100.0
2019-03-02T02:14:55.686Z,100.0
2019-03-02T02:16:50.112Z,100.0
2019-03-02T02:18:50.469Z,100.0
2019-03-02T02:20:52.124Z,100.0
2019-03-02T02:22:50.393Z,100.0
2019-03-02T02:24:50.803Z,100.0
2019-03-02T02:26:50.342Z,100.0
2019-03-02T02:28:50.665Z,100.0
2019-03-02T02:30:50.142Z,99.8
2019-03-02T02:32:50.409Z,100.0
2019-03-02T02:34:50.110Z,100.0
2019-03-02T02:37:00.597Z,100.0
2019-03-02T02:38:56.310Z,99.5
2019-03-02T02:40:50.526Z,98.9
2019-03-02T02:42:50.874Z,98.6
2019-03-02T02:44:50.218Z,98.8
2019-03-02T02:46:50.602Z,98.4
2019-03-02T02:48:50.775Z,98.0
2019-03-02T02:50:50.181Z,97.8
2019-03-02T02:52:50.473Z,97.5
2019-03-02T02:54:50.672Z,98.1
2019-03-02T02:57:01.055Z,97.6
2019-03-02T02:59:02.390Z,97.7
2019-03-02T03:00:57.230Z,98.3
2019-03-02T03:02:50.549Z,97.7
2019-03-02T03:04:50.117Z,97.4
2019-03-02T03:06:50.370Z,98.0
2019-03-02T03:08:50.211Z,98.0
2019-03-02T03:10:50.493Z,97.4
2019-03-02T03:12:50.700Z,97.2
2019-03-02T03:15:00.051Z,97.4
2019-03-02T03:16:56.145Z,97.2
2019-03-02T03:18:54.322Z,97.6
2019-03-02T03:20:51.384Z,97.4
2019-03-02T03:22:50.573Z,97.3
2019-03-02T03:24:50.845Z,97.7
2019-03-02T03:26:50.436Z,97.2
2019-03-02T03:28:50.593Z,97.2
2019-03-02T03:30:50.756Z,97.6
2019-03-02T03:33:00.954Z,97.5
2019-03-02T03:34:50.588Z,97.3
2019-03-02T03:36:50.042Z,97.0
2019-03-02T03:38:50.248Z,96.8
2019-03-02T03:40:50.462Z,96.5
2019-03-02T03:42:50.644Z,95.9
2019-03-02T03:44:50.820Z,96.2
2019-03-02T03:46:50.272Z,96.3
2019-03-02T03:48:58.453Z,96.2
2019-03-02T03:50:54.522Z,95.9
2019-03-02T03:52:51.200Z,95.8
2019-03-02T03:54:50.486Z,95.8
2019-03-02T03:56:50.888Z,95.6
2019-03-02T03:58:50.107Z,95.9
2019-03-02T04:00:50.331Z,95.8
2019-03-02T04:02:50.693Z,95.7
2019-03-02T04:04:50.478Z,95.7
2019-03-02T04:06:50.940Z,96.3
2019-03-02T04:08:50.165Z,96.1
2019-03-02T04:10:50.362Z,96.2
2019-03-02T04:12:50.647Z,96.2
2019-03-02T04:14:50.934Z,95.8
2019-03-02T04:16:50.264Z,95.9
2019-03-02T04:18:58.860Z,95.7
2019-03-02T04:20:51.401Z,95.4
2019-03-02T04:22:50.675Z,95.6
2019-03-02T04:24:50.941Z,95.6
2019-03-02T04:26:50.310Z,96.0
2019-03-02T04:28:50.530Z,96.3
2019-03-02T04:30:50.811Z,95.9
2019-03-02T04:32:49.991Z,95.9
2019-03-02T04:34:58.950Z,95.9
2019-03-02T04:36:50.309Z,95.7
2019-03-02T04:38:50.606Z,95.9
2019-03-02T04:40:50.799Z,96.3
2019-03-02T04:42:51.992Z,96.4
2019-03-02T04:44:50.230Z,96.4
2019-03-02T04:46:52.560Z,96.6
2019-03-02T04:48:50.715Z,96.7
2019-03-02T04:50:50.882Z,96.7
2019-03-02T04:52:51.333Z,96.6
2019-03-02T04:54:50.500Z,96.6
2019-03-02T04:56:50.876Z,96.9
2019-03-02T04:58:50.037Z,97.1
2019-03-02T05:00:50.313Z,97.2
2019-03-02T05:02:56.467Z,97.2
2019-03-02T05:04:50.039Z,97.5
2019-03-02T05:06:56.092Z,97.5
2019-03-02T05:08:50.334Z,97.7
2019-03-02T05:10:50.514Z,97.9
2019-03-02T05:12:54.419Z,97.7
2019-03-02T05:14:50.546Z,97.7
2019-03-02T05:16:50.926Z,97.6
2019-03-02T05:18:55.140Z,97.5
2019-03-02T05:20:50.309Z,97.5
2019-03-02T05:22:56.354Z,97.4
2019-03-02T05:24:50.647Z,97.4
2019-03-02T05:26:57.868Z,97.3
2019-03-02T05:28:50.135Z,97.2
2019-03-02T05:30:50.336Z,97.3
2019-03-02T05:32:53.114Z,97.2
2019-03-02T05:34:50.623Z,97.5
2019-03-02T05:36:50.043Z,97.3
2019-03-02T05:38:50.233Z,97.5
2019-03-02T05:40:50.361Z,97.5
2019-03-02T05:42:53.121Z,97.5
2019-03-02T05:44:50.295Z,97.5
2019-03-02T05:46:50.607Z,97.3
2019-03-02T05:48:50.756Z,97.5
2019-03-02T05:50:50.151Z,97.5
2019-03-02T05:52:55.661Z,97.7
2019-03-02T05:54:50.933Z,97.7
2019-03-02T05:56:50.288Z,97.5
2019-03-02T05:58:52.391Z,97.5
2019-03-02T06:00:50.598Z,97.4
2019-03-02T06:02:50.895Z,97.1
2019-03-02T06:04:58.351Z,97.1
2019-03-02T06:06:55.821Z,96.9
2019-03-02T06:08:50.124Z,97.0
2019-03-02T06:10:50.336Z,96.9
2019-03-02T06:12:53.489Z,97.2
2019-03-02T06:14:50.662Z,96.8
2019-03-02T06:16:50.083Z,96.9
2019-03-02T06:18:50.211Z,96.8
2019-03-02T06:20:50.405Z,96.5
2019-03-02T06:22:57.074Z,96.7
2019-03-02T06:24:50.312Z,96.7
2019-03-02T06:26:50.658Z,96.7
2019-03-02T06:28:50.864Z,96.6
2019-03-02T06:30:50.089Z,96.1
2019-03-02T06:32:50.437Z,96.2
2019-03-02T06:34:57.403Z,96.3
2019-03-02T06:36:50.263Z,96.6
2019-03-02T06:38:50.484Z,96.4
2019-03-02T06:40:50.691Z,96.3
2019-03-02T06:42:49.990Z,96.4
2019-03-02T06:44:50.193Z,96.3
2019-03-02T06:46:50.571Z,96.5
2019-03-02T06:48:50.805Z,96.4
2019-03-02T06:50:50.004Z,96.4
2019-03-02T06:52:50.170Z,96.6
2019-03-02T06:54:50.465Z,96.4
2019-03-02T06:56:58.645Z,96.7
2019-03-02T06:58:50.909Z,97.0
2019-03-02T07:00:50.232Z,97.2
2019-03-02T07:02:50.558Z,97.0
2019-03-02T07:04:50.140Z,97.6
2019-03-02T07:06:50.458Z,97.9
2019-03-02T07:08:50.613Z,98.1
2019-03-02T07:10:50.831Z,98.2
2019-03-02T07:12:50.095Z,98.2
2019-03-02T07:14:52.445Z,98.4
2019-03-02T07:16:57.590Z,98.2
2019-03-02T07:18:50.729Z,98.1
2019-03-02T07:20:49.944Z,98.6
2019-03-02T07:22:53.715Z,98.5
2019-03-02T07:24:50.885Z,98.7
2019-03-02T07:26:55.823Z,97.9
2019-03-02T07:28:49.983Z,97.8
2019-03-02T07:30:50.246Z,97.9
2019-03-02T07:32:50.471Z,97.1
2019-03-02T07:34:50.112Z,97.4
2019-03-02T07:36:50.388Z,96.9
2019-03-02T07:38:57.777Z,97.4
2019-03-02T07:40:50.967Z,95.9
2019-03-02T07:42:50.257Z,95.4
2019-03-02T07:44:50.487Z,95.4
2019-03-02T07:46:50.904Z,94.9
2019-03-02T07:48:50.100Z,94.6
2019-03-02T07:50:50.279Z,94.2
2019-03-02T07:52:54.474Z,94.0
2019-03-02T07:54:59.116Z,94.1
2019-03-02T07:56:50.500Z,94.2
2019-03-02T07:58:56.172Z,93.8
2019-03-02T08:00:50.366Z,94.2
2019-03-02T08:02:50.671Z,93.7
2019-03-02T08:04:50.269Z,93.7
2019-03-02T08:06:50.695Z,93.6
2019-03-02T08:08:50.566Z,93.6
2019-03-02T08:10:50.734Z,93.6
2019-03-02T08:12:50.956Z,92.9
2019-03-02T08:14:50.185Z,92.7
2019-03-02T08:16:50.594Z,92.7
2019-03-02T08:18:50.856Z,93.0
2019-03-02T08:20:50.052Z,92.1
2019-03-02T08:22:50.279Z,92.3
2019-03-02T08:24:50.429Z,92.5
2019-03-02T08:26:50.813Z,92.4
2019-03-02T08:28:51.558Z,92.7
2019-03-02T08:30:50.757Z,91.8
2019-03-02T08:32:50.053Z,91.0
2019-03-02T08:34:50.602Z,90.8
2019-03-02T08:36:55.883Z,91.0
2019-03-02T08:38:50.076Z,91.0
2019-03-02T08:40:50.363Z,91.0
2019-03-02T08:42:50.497Z,90.9
2019-03-02T08:44:55.519Z,90.9
2019-03-02T08:46:50.735Z,90.7
2019-03-02T08:48:50.058Z,90.5
2019-03-02T08:50:54.561Z,90.0
2019-03-02T08:52:50.868Z,91.0
2019-03-02T08:54:50.072Z,89.7
2019-03-02T08:56:50.460Z,89.6
2019-03-02T08:58:50.580Z,89.1
2019-03-02T09:00:52.173Z,88.8
2019-03-02T09:02:50.315Z,88.5
2019-03-02T09:04:52.034Z,87.9
2019-03-02T09:06:50.456Z,87.9
2019-03-02T09:08:50.677Z,88.6
2019-03-02T09:10:50.927Z,87.9
2019-03-02T09:12:50.112Z,87.2
2019-03-02T09:14:50.649Z,87.6
2019-03-02T09:16:50.130Z,87.2
2019-03-02T09:18:50.398Z,87.2
2019-03-02T09:20:50.579Z,87.2
2019-03-02T09:22:50.783Z,86.9
2019-03-02T09:24:50.546Z,86.3
2019-03-02T09:26:50.910Z,87.1
2019-03-02T09:28:57.867Z,86.7
2019-03-02T09:30:50.052Z,86.9
2019-03-02T09:32:52.840Z,86.4
2019-03-02T09:34:50.511Z,86.2
2019-03-02T09:36:50.813Z,86.1
2019-03-02T09:38:54.109Z,86.4
2019-03-02T09:40:50.662Z,86.3
2019-03-02T09:42:49.994Z,86.0
2019-03-02T09:44:50.638Z,85.8
2019-03-02T09:46:49.974Z,86.1
2019-03-02T09:48:50.241Z,85.9
2019-03-02T09:50:50.393Z,86.4
2019-03-02T09:52:50.558Z,86.4
2019-03-02T09:54:50.830Z,85.4
2019-03-02T09:56:50.265Z,84.1
2019-03-02T09:58:50.422Z,84.1
2019-03-02T10:00:50.525Z,84.1
2019-03-02T10:02:52.084Z,84.2
2019-03-02T10:04:50.697Z,83.4
2019-03-02T10:06:51.044Z,83.3
2019-03-02T10:08:50.699Z,83.9
2019-03-02T10:10:49.960Z,83.4
2019-03-02T10:12:53.885Z,83.7
2019-03-02T10:14:50.065Z,84.0
2019-03-02T10:16:50.354Z,84.1
2019-03-02T10:18:51.512Z,84.2
2019-03-02T10:20:50.764Z,84.6
2019-03-02T10:22:49.983Z,84.4
2019-03-02T10:24:54.638Z,84.9
2019-03-02T10:26:50.887Z,85.1
2019-03-02T10:28:50.161Z,85.1
2019-03-02T10:30:50.289Z,85.2
2019-03-02T10:32:57.747Z,85.2
2019-03-02T10:34:50.514Z,85.4
2019-03-02T10:36:50.839Z,84.9
2019-03-02T10:38:57.228Z,85.7
2019-03-02T10:40:50.409Z,85.1
2019-03-02T10:42:50.617Z,85.6
2019-03-02T10:45:00.358Z,86.3
2019-03-02T10:46:50.718Z,85.6
2019-03-02T10:48:49.967Z,85.9
2019-03-02T10:50:50.141Z,86.3
2019-03-02T10:52:50.599Z,86.8
2019-03-02T10:54:50.845Z,87.1
2019-03-02T10:56:50.279Z,86.7
2019-03-02T10:58:50.430Z,86.7
2019-03-02T11:00:50.664Z,87.2
2019-03-02T11:02:57.694Z,88.3
2019-03-02T11:04:50.275Z,88.6
2019-03-02T11:06:50.223Z,89.7
2019-03-02T11:08:50.753Z,90.1
2019-03-02T11:10:53.841Z,90.7
2019-03-02T11:12:50.087Z,91.7
2019-03-02T11:14:50.238Z,92.2
2019-03-02T11:16:50.558Z,92.6
2019-03-02T11:18:50.258Z,93.2
2019-03-02T11:20:49.939Z,93.3
2019-03-02T11:22:50.121Z,93.3
2019-03-02T11:24:50.729Z,93.5
2019-03-02T11:26:50.145Z,93.9
2019-03-02T11:28:50.490Z,91.8
2019-03-02T11:30:50.597Z,91.4
2019-03-02T11:32:57.374Z,91.3
2019-03-02T11:34:50.119Z,91.3
2019-03-02T11:36:51.298Z,90.7
2019-03-02T11:38:50.467Z,91.7
2019-03-02T11:40:50.128Z,92.0
2019-03-02T11:42:50.403Z,93.5
2019-03-02T11:44:50.604Z,92.8
2019-03-02T11:46:49.986Z,92.1
2019-03-02T11:48:58.491Z,92.5
2019-03-02T11:50:52.873Z,92.3
2019-03-02T11:52:51.109Z,92.8
2019-03-02T11:54:50.255Z,92.4
2019-03-02T11:56:50.557Z,92.5
2019-03-02T11:58:50.783Z,92.8
2019-03-02T12:00:54.114Z,93.4
2019-03-02T12:02:50.610Z,93.8
2019-03-02T12:04:53.673Z,93.2
2019-03-02T12:06:50.087Z,92.6
2019-03-02T12:08:50.292Z,92.5
2019-03-02T12:10:50.503Z,93.1
2019-03-02T12:12:57.060Z,93.0
2019-03-02T12:14:50.252Z,93.3
2019-03-02T12:16:50.612Z,92.2
2019-03-02T12:18:55.473Z,92.3
2019-03-02T12:20:50.281Z,91.9
2019-03-02T12:22:50.560Z,91.8
2019-03-02T12:24:50.743Z,92.2
2019-03-02T12:26:50.160Z,91.6
2019-03-02T12:28:50.342Z,92.2
2019-03-02T12:30:50.582Z,90.8
2019-03-02T12:32:50.918Z,90.6
2019-03-02T12:34:50.409Z,90.8
2019-03-02T12:36:55.018Z,91.4
2019-03-02T12:38:50.248Z,91.6
2019-03-02T12:40:50.393Z,90.9
2019-03-02T12:42:50.599Z,90.5
2019-03-02T12:44:59.124Z,90.8
2019-03-02T12:47:00.072Z,91.1
2019-03-02T12:48:50.108Z,91.1
2019-03-02T12:50:50.263Z,91.0
2019-03-02T12:52:53.228Z,91.7
2019-03-02T12:54:50.422Z,90.9
2019-03-02T12:56:50.821Z,91.0
2019-03-02T12:58:50.477Z,91.3
2019-03-02T13:00:50.717Z,91.2
2019-03-02T13:02:53.070Z,91.1
2019-03-02T13:04:51.974Z,91.1
2019-03-02T13:06:50.500Z,91.0
2019-03-02T13:08:50.643Z,91.0
2019-03-02T13:10:55.024Z,91.6
2019-03-02T13:12:50.252Z,91.7
2019-03-02T13:14:50.781Z,91.9
2019-03-02T13:16:50.608Z,91.9
2019-03-02T13:18:51.898Z,92.0
2019-03-02T13:20:52.567Z,92.0
2019-03-02T13:22:50.772Z,91.7
2019-03-02T13:24:59.578Z,91.6
2019-03-02T13:26:50.351Z,91.9
2019-03-02T13:28:50.553Z,91.8
2019-03-02T13:30:50.722Z,91.8
2019-03-02T13:32:57.399Z,91.5
2019-03-02T13:34:50.051Z,91.1
2019-03-02T13:36:50.315Z,90.8
2019-03-02T13:38:50.573Z,90.9
2019-03-02T13:40:50.314Z,91.5
2019-03-02T13:42:52.626Z,91.4
2019-03-02T13:44:50.001Z,91.6
2019-03-02T13:46:50.005Z,90.6
2019-03-02T13:48:50.907Z,90.6
2019-03-02T13:50:55.216Z,90.7
2019-03-02T13:52:50.434Z,90.8
2019-03-02T13:54:49.969Z,90.0
2019-03-02T13:56:50.371Z,89.8
2019-03-02T13:58:56.196Z,89.6
2019-03-02T14:00:50.284Z,89.4
2019-03-02T14:02:50.642Z,89.2
2019-03-02T14:04:50.805Z,88.6
2019-03-02T14:06:58.423Z,88.5
2019-03-02T14:08:50.652Z,87.9
2019-03-02T14:10:50.086Z,87.6
2019-03-02T14:12:55.679Z,88.6
2019-03-02T14:14:50.903Z,88.3
2019-03-02T14:16:56.088Z,88.1
2019-03-02T14:18:50.141Z,88.7
2019-03-02T14:20:50.108Z,88.0
2019-03-02T14:22:54.584Z,88.0
2019-03-02T14:24:49.987Z,88.7
2019-03-02T14:26:50.248Z,89.3
2019-03-02T14:28:50.464Z,89.1
2019-03-02T14:30:53.131Z,89.2
2019-03-02T14:32:53.898Z,89.9
2019-03-02T14:34:50.577Z,90.0
2019-03-02T14:36:50.545Z,90.8
2019-03-02T14:38:50.812Z,92.3
2019-03-02T14:40:53.087Z,93.0
2019-03-02T14:42:50.326Z,94.6
2019-03-02T14:44:50.472Z,95.6
2019-03-02T14:46:50.823Z,96.0
2019-03-02T14:48:51.190Z,96.3
2019-03-02T14:50:50.505Z,96.7
2019-03-02T14:52:50.724Z,96.7
2019-03-02T14:54:58.236Z,96.9
2019-03-02T14:56:50.452Z,97.4
2019-03-02T14:58:50.702Z,97.1
2019-03-02T15:00:50.015Z,97.1
2019-03-02T15:02:53.926Z,97.1
2019-03-02T15:04:50.583Z,97.4
2019-03-02T15:06:50.924Z,97.0
2019-03-02T15:08:50.796Z,96.7
2019-03-02T15:10:49.994Z,97.0
2019-03-02T15:12:54.476Z,96.4
2019-03-02T15:14:50.632Z,96.0
2019-03-02T15:16:49.968Z,95.9
2019-03-02T15:18:50.127Z,96.1
2019-03-02T15:20:50.704Z,95.6
2019-03-02T15:22:50.880Z,95.7
2019-03-02T15:24:55.312Z,94.9
2019-03-02T15:26:50.622Z,95.4
2019-03-02T15:28:50.207Z,95.4
2019-03-02T15:30:50.454Z,95.4
2019-03-02T15:32:59.155Z,95.4
2019-03-02T15:34:59.372Z,95.5
2019-03-02T15:36:50.644Z,95.5
2019-03-02T15:38:50.889Z,95.2
2019-03-02T15:40:50.864Z,95.0
2019-03-02T15:43:00.013Z,94.8
2019-03-02T15:44:50.261Z,95.0
2019-03-02T15:46:50.571Z,94.9
2019-03-02T15:48:50.851Z,95.1
2019-03-02T15:50:55.864Z,95.0
2019-03-02T15:52:50.052Z,94.9
2019-03-02T15:54:50.191Z,95.2
2019-03-02T15:56:50.556Z,95.5
2019-03-02T15:58:50.683Z,95.8
2019-03-02T16:00:52.632Z,96.5
2019-03-02T16:02:50.938Z,96.7
2019-03-02T16:04:50.456Z,96.9
2019-03-02T16:06:50.734Z,96.8
2019-03-02T16:08:53.984Z,96.9
2019-03-02T16:10:51.941Z,97.2
2019-03-02T16:12:50.121Z,97.9
2019-03-02T16:14:50.355Z,97.8
2019-03-02T16:16:50.625Z,97.6
2019-03-02T16:18:55.216Z,97.5
2019-03-02T16:20:50.337Z,98.3
2019-03-02T16:22:50.524Z,98.0
2019-03-02T16:24:50.792Z,98.0
2019-03-02T16:26:54.794Z,98.4
2019-03-02T16:28:51.373Z,98.2
2019-03-02T16:30:50.562Z,98.6
2019-03-02T16:32:56.673Z,98.6
2019-03-02T16:34:50.267Z,99.0
2019-03-02T16:36:50.600Z,99.1
2019-03-02T16:38:50.606Z,98.8
2019-03-02T16:40:59.782Z,99.1
2019-03-02T16:42:52.265Z,99.9
2019-03-02T16:44:50.688Z,99.6
2019-03-02T16:46:50.125Z,100.0
2019-03-02T16:48:50.282Z,100.0
2019-03-02T16:50:55.025Z,100.0
2019-03-02T16:52:50.265Z,100.0
2019-03-02T16:54:50.422Z,100.0
2019-03-02T16:56:50.236Z,100.0
2019-03-02T16:58:57.420Z,100.0
2019-03-02T17:00:50.487Z,100.0
2019-03-02T17:02:50.605Z,100.0
2019-03-02T17:04:57.046Z,100.0
2019-03-02T17:06:50.283Z,100.0
2019-03-02T17:08:50.423Z,100.0
2019-03-02T17:11:01.094Z,100.0
2019-03-02T17:12:51.497Z,100.0
2019-03-02T17:14:50.012Z,100.0
2019-03-02T17:16:50.315Z,100.0
2019-03-02T17:18:50.576Z,100.0
2019-03-02T17:20:50.835Z,100.0
2019-03-02T17:22:50.063Z,100.0
2019-03-02T17:24:50.190Z,100.0
2019-03-02T17:26:50.629Z,100.0
2019-03-02T17:28:50.265Z,100.0
2019-03-02T17:30:50.467Z,100.0
2019-03-02T17:32:56.126Z,100.0
2019-03-02T17:34:50.642Z,100.0
2019-03-02T17:36:50.124Z,100.0
2019-03-02T17:38:51.927Z,100.0
2019-03-02T17:40:50.166Z,100.0
2019-03-02T17:42:50.292Z,100.0
2019-03-02T17:44:50.363Z,100.0
2019-03-02T17:46:52.266Z,100.0
2019-03-02T17:48:50.418Z,100.0
2019-03-02T17:50:59.812Z,100.0
2019-03-02T17:52:54.789Z,100.0
2019-03-02T17:54:54.624Z,100.0
2019-03-02T17:56:49.979Z,100.0
2019-03-02T17:58:50.118Z,100.0
2019-03-02T18:00:58.159Z,100.0
2019-03-02T18:02:50.268Z,100.0
2019-03-02T18:04:50.679Z,100.0
2019-03-02T18:06:50.023Z,100.0
2019-03-02T18:08:50.806Z,100.0
2019-03-02T18:10:50.061Z,100.0
2019-03-02T18:12:50.272Z,100.0
2019-03-02T18:14:50.440Z,100.0
2019-03-02T18:16:50.832Z,100.0
2019-03-02T18:18:50.012Z,100.0
2019-03-02T18:20:57.747Z,100.0
2019-03-02T18:22:49.956Z,100.0
2019-03-02T18:24:50.247Z,100.0
2019-03-02T18:26:52.111Z,100.0
2019-03-02T18:28:54.725Z,100.0
2019-03-02T18:30:49.982Z,99.8
2019-03-02T18:32:50.140Z,99.8
2019-03-02T18:34:50.521Z,100.0
2019-03-02T18:36:54.597Z,100.0
2019-03-02T18:38:50.939Z,100.0
2019-03-02T18:40:52.414Z,100.0
2019-03-02T18:42:50.578Z,100.0
2019-03-02T18:45:04.705Z,100.0
2019-03-02T18:46:54.565Z,100.0
2019-03-02T18:48:50.679Z,100.0
2019-03-02T18:50:49.970Z,100.0
2019-03-02T18:52:57.015Z,100.0
2019-03-02T18:54:51.265Z,100.0
2019-03-02T18:56:50.493Z,100.0
2019-03-02T18:59:08.936Z,100.0
2019-03-02T19:00:59.052Z,100.0
2019-03-02T19:02:50.213Z,100.0
2019-03-02T19:04:50.693Z,100.0
2019-03-02T19:06:49.980Z,100.0
2019-03-02T19:08:54.770Z,100.0
2019-03-02T19:10:49.967Z,100.0
2019-03-02T19:12:50.163Z,100.0
2019-03-02T19:14:59.348Z,100.0
2019-03-02T19:16:50.678Z,100.0
2019-03-02T19:18:50.787Z,100.0
2019-03-02T19:20:50.049Z,100.0
2019-03-02T19:22:50.242Z,100.0
2019-03-02T19:24:50.448Z,100.0
2019-03-02T19:26:50.705Z,100.0
2019-03-02T19:28:50.885Z,100.0
2019-03-02T19:30:50.079Z,100.0
2019-03-02T19:32:50.322Z,100.0
2019-03-02T19:34:50.900Z,100.0
2019-03-02T19:36:50.370Z,100.0
2019-03-02T19:38:50.532Z,100.0
2019-03-02T19:40:50.610Z,100.0
2019-03-02T19:42:50.851Z,100.0
2019-03-02T19:44:50.063Z,100.0
2019-03-02T19:46:50.467Z,100.0
2019-03-02T19:48:50.594Z,100.0
2019-03-02T19:50:50.738Z,100.0
2019-03-02T19:52:50.013Z,100.0
2019-03-02T19:54:50.173Z,100.0
2019-03-02T19:56:50.432Z,100.0
2019-03-02T19:58:50.744Z,100.0
2019-03-02T20:00:50.914Z,100.0
2019-03-02T20:02:50.229Z,100.0
2019-03-02T20:04:50.703Z,100.0
2019-03-02T20:06:50.133Z,100.0
2019-03-02T20:08:50.329Z,100.0
2019-03-02T20:10:50.512Z,100.0
2019-03-02T20:12:50.714Z,100.0
2019-03-02T20:14:49.951Z,100.0
2019-03-02T20:16:50.447Z,100.0
2019-03-02T20:18:50.648Z,100.0
2019-03-02T20:20:50.910Z,100.0
2019-03-02T20:22:50.131Z,100.0
2019-03-02T20:24:50.281Z,100.0
2019-03-02T20:26:50.620Z,100.0
2019-03-02T20:28:50.720Z,100.0
2019-03-02T20:30:50.893Z,100.0
2019-03-02T20:32:50.180Z,100.0
2019-03-02T20:34:50.808Z,100.0
2019-03-02T20:36:50.078Z,100.0
2019-03-02T20:38:50.341Z,100.0
2019-03-02T20:40:50.568Z,100.0
2019-03-02T20:42:50.676Z,100.0
2019-03-02T20:44:50.791Z,100.0
2019-03-02T20:46:50.203Z,100.0
2019-03-02T20:48:50.376Z,99.9
2019-03-02T20:50:50.544Z,99.9
2019-03-02T20:52:50.820Z,99.6
2019-03-02T20:54:50.033Z,99.7
2019-03-02T20:56:50.333Z,99.6
2019-03-02T20:58:50.524Z,99.4
2019-03-02T21:00:50.730Z,99.3
2019-03-02T21:02:50.910Z,99.0
2019-03-02T21:04:50.369Z,98.7
2019-03-02T21:06:50.667Z,98.3
2019-03-02T21:08:50.838Z,98.1
2019-03-02T21:10:50.082Z,98.5
2019-03-02T21:12:50.298Z,98.4
2019-03-02T21:14:50.447Z,98.2
2019-03-02T21:16:50.889Z,97.7
2019-03-02T21:18:50.074Z,97.8
2019-03-02T21:20:50.145Z,97.7
2019-03-02T21:22:50.318Z,97.8
2019-03-02T21:24:50.573Z,97.3
2019-03-02T21:26:49.973Z,96.9
2019-03-02T21:28:50.147Z,97.8
2019-03-02T21:30:50.273Z,96.8
2019-03-02T21:32:50.447Z,96.6
2019-03-02T21:34:50.140Z,96.2
2019-03-02T21:36:50.439Z,96.1
2019-03-02T21:38:50.613Z,96.1
2019-03-02T21:40:50.804Z,95.8
2019-03-02T21:42:50.060Z,95.8
2019-03-02T21:44:50.222Z,95.9
2019-03-02T21:46:50.502Z,96.3
2019-03-02T21:48:50.668Z,96.5
2019-03-02T21:50:50.913Z,95.6
2019-03-02T21:52:50.072Z,95.5
2019-03-02T21:54:50.300Z,95.3
2019-03-02T21:56:50.520Z,95.6
2019-03-02T21:58:50.667Z,95.3
2019-03-02T22:00:50.763Z,95.9
2019-03-02T22:02:49.959Z,96.4
2019-03-02T22:04:50.557Z,95.1
2019-03-02T22:06:49.982Z,94.7
2019-03-02T22:08:50.144Z,94.9
2019-03-02T22:10:50.365Z,94.8
2019-03-02T22:12:50.571Z,95.2
2019-03-02T22:14:50.746Z,95.1
2019-03-02T22:16:50.037Z,95.3
2019-03-02T22:18:50.138Z,96.2
2019-03-02T22:20:50.353Z,95.8
2019-03-02T22:22:50.543Z,96.2
2019-03-02T22:24:50.815Z,96.2
2019-03-02T22:26:50.300Z,95.7
2019-03-02T22:28:50.483Z,96.5
2019-03-02T22:30:50.622Z,95.5
2019-03-02T22:32:50.819Z,95.7
2019-03-02T22:34:50.479Z,95.3
2019-03-02T22:36:50.859Z,94.9
2019-03-02T22:38:49.974Z,94.8
2019-03-02T22:40:50.222Z,95.0
2019-03-02T22:42:50.388Z,94.9
2019-03-02T22:44:50.661Z,95.1
2019-03-02T22:46:49.957Z,95.1
2019-03-02T22:48:50.120Z,94.8
2019-03-02T22:50:50.326Z,94.2
2019-03-02T22:52:50.662Z,94.1
2019-03-02T22:54:50.805Z,94.2
2019-03-02T22:56:50.242Z,94.1
2019-03-02T22:58:50.421Z,94.1
2019-03-02T23:00:50.588Z,94.3
2019-03-02T23:02:50.340Z,94.1
2019-03-02T23:04:50.863Z,93.8
2019-03-02T23:06:50.226Z,93.9
2019-03-02T23:08:50.372Z,94.0
2019-03-02T23:10:50.510Z,93.8
2019-03-02T23:12:50.764Z,93.9
2019-03-02T23:14:50.003Z,93.5
2019-03-02T23:16:50.265Z,93.5
2019-03-02T23:18:50.473Z,93.6
2019-03-02T23:20:50.602Z,93.4
2019-03-02T23:22:50.828Z,93.7
2019-03-02T23:24:49.965Z,94.2
2019-03-02T23:26:50.288Z,93.9
2019-03-02T23:28:50.471Z,94.0
2019-03-02T23:30:50.646Z,94.5
2019-03-02T23:32:50.793Z,94.5
2019-03-02T23:34:50.493Z,94.3
2019-03-02T23:36:50.735Z,94.2
2019-03-02T23:38:49.919Z,94.6
2019-03-02T23:40:50.089Z,94.3
2019-03-02T23:42:50.319Z,94.4
2019-03-02T23:44:50.494Z,94.8
2019-03-02T23:46:50.806Z,94.7
2019-03-02T23:48:49.979Z,94.7
2019-03-02T23:50:50.254Z,94.8
2019-03-02T23:52:50.418Z,94.8
2019-03-02T23:54:50.516Z,95.2
2019-03-02T23:56:50.940Z,95.2
2019-03-02T23:58:50.177Z,95.4
